Time;durP1;ratioP1;P1;durP2;ratioP2;P2;SDS_P1;SDS_P2;PMS_P1;PMS_P2;Temp;Humidity;BMP_temperature;BMP_pressure;BME280_temperature;BME280_humidity;BME280_pressure;Samples;Min_cycle;Max_cycle;Signal;HPM_P1;HPM_P2
2022/04/24 00:00:27;;;;;;;0.77;0.60;;;;;;;;;;6207226;23;20323;-48
2022/04/24 00:02:54;;;;;;;1.40;0.77;;;;;;;;;;6206950;23;20043;-50
2022/04/24 00:05:20;;;;;;;1.17;0.70;;;;;;;;;;6207881;23;20427;-47
2022/04/24 00:07:47;;;;;;;0.88;0.57;;;;;;;;;;6207723;23;20004;-50
2022/04/24 00:10:14;;;;;;;1.52;0.80;;;;;;;;;;6207253;23;20460;-50
2022/04/24 00:12:40;;;;;;;1.75;0.82;;;;;;;;;;6207060;23;20004;-46
2022/04/24 00:15:06;;;;;;;0.90;0.80;;;;;;;;;;6207239;23;20039;-50
2022/04/24 00:17:32;;;;;;;0.75;0.75;;;;;;;;;;6206337;23;20055;-49
2022/04/24 00:19:58;;;;;;;0.70;0.70;;;;;;;;;;6207070;23;20440;-49
2022/04/24 00:22:25;;;;;;;2.17;1.10;;;;;;;;;;6207469;23;20051;-50
2022/04/24 00:24:51;;;;;;;1.13;0.70;;;;;;;;;;6207167;23;20011;-50
2022/04/24 00:27:17;;;;;;;0.90;0.70;;;;;;;;;;6207767;23;20028;-46
2022/04/24 00:29:43;;;;;;;1.55;0.80;;;;;;;;;;6206680;23;20681;-47
2022/04/24 00:32:09;;;;;;;1.27;0.80;;;;;;;;;;6207078;23;19997;-49
2022/04/24 00:34:36;;;;;;;1.00;0.70;;;;;;;;;;6206931;23;20000;-51
2022/04/24 00:37:03;;;;;;;1.00;0.80;;;;;;;;;;6207327;23;20005;-47
2022/04/24 00:39:29;;;;;;;1.10;0.60;;;;;;;;;;6206667;23;20004;-49
2022/04/24 00:41:55;;;;;;;1.98;1.10;;;;;;;;;;6206968;23;20005;-49
2022/04/24 00:44:22;;;;;;;1.63;1.13;;;;;;;;;;6206792;23;20013;-47
2022/04/24 00:46:56;;;;;;;2.05;1.00;;;;;;;;;;6207325;23;20015;-48
2022/04/24 00:49:23;;;;;;;2.42;1.30;;;;;;;;;;6206907;23;20027;-48
2022/04/24 00:51:49;;;;;;;1.90;1.23;;;;;;;;;;6207354;23;20304;-50
2022/04/24 00:54:16;;;;;;;2.83;1.30;;;;;;;;;;6206668;23;20079;-47
2022/04/24 00:56:44;;;;;;;1.65;1.30;;;;;;;;;;6206497;23;20004;-46
2022/04/24 00:59:11;;;;;;;1.85;1.23;;;;;;;;;;6206860;23;20467;-48
2022/04/24 01:01:38;;;;;;;2.72;1.30;;;;;;;;;;6205614;23;20107;-50
2022/04/24 01:04:05;;;;;;;1.33;1.20;;;;;;;;;;6206650;23;20401;-48
2022/04/24 01:06:34;;;;;;;2.33;1.08;;;;;;;;;;6206256;23;20008;-50
2022/04/24 01:09:09;;;;;;;1.25;1.10;;;;;;;;;;6206875;23;20007;-50
2022/04/24 01:11:36;;;;;;;2.38;1.05;;;;;;;;;;6206358;23;20059;-49
2022/04/24 01:14:02;;;;;;;1.40;1.08;;;;;;;;;;6206885;23;20087;-49
2022/04/24 01:16:29;;;;;;;2.60;1.00;;;;;;;;;;6206088;23;20572;-50
2022/04/24 01:18:55;;;;;;;1.10;0.90;;;;;;;;;;6206351;23;20524;-49
2022/04/24 01:21:21;;;;;;;1.20;0.88;;;;;;;;;;6207380;23;20008;-46
2022/04/24 01:23:48;;;;;;;1.25;1.13;;;;;;;;;;6206949;23;20016;-49
2022/04/24 01:26:14;;;;;;;0.88;0.88;;;;;;;;;;6206560;23;20335;-50
2022/04/24 01:28:40;;;;;;;1.35;0.90;;;;;;;;;;6205967;23;20027;-48
2022/04/24 01:31:06;;;;;;;3.95;1.20;;;;;;;;;;6206852;23;20216;-49
2022/04/24 01:33:32;;;;;;;1.20;1.10;;;;;;;;;;6206086;23;20012;-47
2022/04/24 01:35:58;;;;;;;1.40;1.20;;;;;;;;;;6206328;23;20005;-48
2022/04/24 01:38:24;;;;;;;1.33;1.20;;;;;;;;;;6206320;23;20052;-47
2022/04/24 01:40:50;;;;;;;1.80;1.05;;;;;;;;;;6206922;23;20004;-49
2022/04/24 01:43:16;;;;;;;1.23;1.10;;;;;;;;;;6207175;23;20551;-47
2022/04/24 01:45:43;;;;;;;2.78;1.30;;;;;;;;;;6205910;23;20009;-46
2022/04/24 01:48:09;;;;;;;4.22;1.30;;;;;;;;;;6206003;23;20083;-47
2022/04/24 01:50:35;;;;;;;1.33;1.23;;;;;;;;;;6205962;23;20011;-49
2022/04/24 01:53:02;;;;;;;3.40;1.40;;;;;;;;;;6206233;23;20054;-49
2022/04/24 01:55:28;;;;;;;2.22;1.30;;;;;;;;;;6206053;23;20067;-48
2022/04/24 01:57:54;;;;;;;2.50;1.45;;;;;;;;;;6206256;23;20024;-49
2022/04/24 02:00:21;;;;;;;1.70;1.58;;;;;;;;;;6206991;23;20084;-49
2022/04/24 02:02:47;;;;;;;2.25;1.65;;;;;;;;;;6206171;23;20016;-48
2022/04/24 02:05:13;;;;;;;1.83;1.60;;;;;;;;;;6206157;23;20110;-50
2022/04/24 02:07:39;;;;;;;1.35;1.25;;;;;;;;;;6205644;23;20011;-50
2022/04/24 02:10:06;;;;;;;1.60;1.30;;;;;;;;;;6206345;23;20001;-47
2022/04/24 02:12:32;;;;;;;1.30;1.15;;;;;;;;;;6205692;23;20465;-50
2022/04/24 02:14:58;;;;;;;2.45;1.38;;;;;;;;;;6205789;23;20004;-48
2022/04/24 02:17:24;;;;;;;1.70;1.45;;;;;;;;;;6205463;23;20004;-50
2022/04/24 02:19:50;;;;;;;1.35;1.25;;;;;;;;;;6203722;23;20054;-48
2022/04/24 02:22:16;;;;;;;1.83;1.15;;;;;;;;;;6206430;23;20445;-50
2022/04/24 02:24:42;;;;;;;1.25;1.15;;;;;;;;;;6204723;23;20005;-49
2022/04/24 02:27:09;;;;;;;0.98;0.90;;;;;;;;;;6205957;23;20004;-47
2022/04/24 02:29:35;;;;;;;1.42;1.15;;;;;;;;;;6206229;23;20000;-45
2022/04/24 02:32:01;;;;;;;0.95;0.93;;;;;;;;;;6206581;23;20390;-50
2022/04/24 02:34:27;;;;;;;2.42;1.00;;;;;;;;;;6205647;23;20004;-48
2022/04/24 02:36:53;;;;;;;1.83;1.00;;;;;;;;;;6205958;23;20001;-48
2022/04/24 02:39:19;;;;;;;1.27;1.05;;;;;;;;;;6205892;23;20339;-48
2022/04/24 02:41:46;;;;;;;0.90;0.90;;;;;;;;;;6205322;23;20008;-49
2022/04/24 02:44:13;;;;;;;0.90;0.90;;;;;;;;;;6205826;23;20012;-48
2022/04/24 02:46:39;;;;;;;0.82;0.82;;;;;;;;;;6205171;23;20015;-48
2022/04/24 02:49:05;;;;;;;0.77;0.77;;;;;;;;;;6206356;23;20075;-49
2022/04/24 02:51:31;;;;;;;1.13;0.90;;;;;;;;;;6205693;23;20000;-47
2022/04/24 02:53:57;;;;;;;0.93;0.90;;;;;;;;;;6205753;23;20015;-50
2022/04/24 02:56:22;;;;;;;0.68;0.68;;;;;;;;;;6205651;23;20434;-47
2022/04/24 02:58:49;;;;;;;0.70;0.70;;;;;;;;;;6205160;23;20008;-47
2022/04/24 03:01:15;;;;;;;0.75;0.70;;;;;;;;;;6205527;23;20345;-49
2022/04/24 03:03:42;;;;;;;1.38;0.90;;;;;;;;;;6205405;23;20432;-50
2022/04/24 03:06:08;;;;;;;0.75;0.75;;;;;;;;;;6205356;23;20086;-50
2022/04/24 03:08:35;;;;;;;0.65;0.65;;;;;;;;;;6205862;23;19996;-46
2022/04/24 03:11:01;;;;;;;0.70;0.65;;;;;;;;;;6206457;23;20001;-48
2022/04/24 03:13:27;;;;;;;0.70;0.70;;;;;;;;;;6205490;23;20004;-49
2022/04/24 03:15:53;;;;;;;0.57;0.57;;;;;;;;;;6205437;23;20039;-47
2022/04/24 03:18:19;;;;;;;0.82;0.82;;;;;;;;;;6204869;23;20005;-48
2022/04/24 03:20:45;;;;;;;0.95;0.80;;;;;;;;;;6205370;23;20036;-50
2022/04/24 03:23:12;;;;;;;0.60;0.60;;;;;;;;;;6205361;23;20054;-49
2022/04/24 03:25:38;;;;;;;1.75;0.70;;;;;;;;;;6205174;23;20008;-47
2022/04/24 03:28:04;;;;;;;0.68;0.68;;;;;;;;;;6205792;23;20071;-46
2022/04/24 03:30:30;;;;;;;0.65;0.65;;;;;;;;;;6204787;23;19997;-47
2022/04/24 03:32:56;;;;;;;0.73;0.73;;;;;;;;;;6205858;23;20390;-48
2022/04/24 03:35:22;;;;;;;0.80;0.80;;;;;;;;;;6205030;23;20001;-48
2022/04/24 03:37:50;;;;;;;1.25;0.63;;;;;;;;;;6205260;23;20266;-48
2022/04/24 03:40:16;;;;;;;0.80;0.80;;;;;;;;;;6205179;23;20000;-49
2022/04/24 03:42:43;;;;;;;1.05;0.95;;;;;;;;;;6205293;23;20000;-48
2022/04/24 03:45:11;;;;;;;0.60;0.60;;;;;;;;;;6204756;23;20012;-50
2022/04/24 03:47:37;;;;;;;0.60;0.60;;;;;;;;;;6178501;23;20031;-47
2022/04/24 03:50:04;;;;;;;0.63;0.63;;;;;;;;;;6205989;23;20394;-48
2022/04/24 03:52:30;;;;;;;0.70;0.70;;;;;;;;;;6205572;23;19996;-50
2022/04/24 03:54:56;;;;;;;0.93;0.75;;;;;;;;;;6205292;23;20075;-49
2022/04/24 03:57:22;;;;;;;0.55;0.55;;;;;;;;;;6204829;23;20031;-48
2022/04/24 03:59:48;;;;;;;0.50;0.50;;;;;;;;;;6205058;23;20004;-48
2022/04/24 04:02:14;;;;;;;0.45;0.45;;;;;;;;;;6205107;23;20263;-50
2022/04/24 04:04:40;;;;;;;0.60;0.60;;;;;;;;;;6205204;23;20354;-50
2022/04/24 04:07:06;;;;;;;0.70;0.70;;;;;;;;;;6205063;23;20011;-46
2022/04/24 04:09:32;;;;;;;0.40;0.40;;;;;;;;;;6205687;23;20007;-51
2022/04/24 04:11:58;;;;;;;0.50;0.50;;;;;;;;;;6205167;23;20347;-49
2022/04/24 04:14:24;;;;;;;0.70;0.60;;;;;;;;;;6204844;23;20477;-48
2022/04/24 04:16:52;;;;;;;0.77;0.70;;;;;;;;;;6203122;23;20000;-47
2022/04/24 04:19:18;;;;;;;0.50;0.50;;;;;;;;;;6206139;23;20354;-48
2022/04/24 04:21:44;;;;;;;0.63;0.60;;;;;;;;;;6204808;23;20009;-47
2022/04/24 04:24:11;;;;;;;0.60;0.60;;;;;;;;;;6204585;23;20012;-49
2022/04/24 04:26:38;;;;;;;0.52;0.50;;;;;;;;;;6205041;23;20012;-48
2022/04/24 04:29:04;;;;;;;0.60;0.60;;;;;;;;;;6204683;23;20063;-50
2022/04/24 04:31:30;;;;;;;1.23;0.50;;;;;;;;;;6204892;23;20047;-48
2022/04/24 04:33:56;;;;;;;0.77;0.50;;;;;;;;;;6205181;23;20001;-48
2022/04/24 04:36:22;;;;;;;0.73;0.50;;;;;;;;;;6204721;23;20374;-48
2022/04/24 04:38:48;;;;;;;0.43;0.43;;;;;;;;;;6207545;23;20054;-50
2022/04/24 04:41:14;;;;;;;0.50;0.40;;;;;;;;;;6207382;23;20008;-46
2022/04/24 04:43:40;;;;;;;0.60;0.50;;;;;;;;;;6207196;23;20005;-50
2022/04/24 04:46:06;;;;;;;0.40;0.40;;;;;;;;;;6206380;23;20438;-48
2022/04/24 04:48:34;;;;;;;1.20;0.40;;;;;;;;;;6207197;23;20087;-51
2022/04/24 04:51:00;;;;;;;0.50;0.50;;;;;;;;;;6206960;23;20490;-49
2022/04/24 04:53:26;;;;;;;0.65;0.50;;;;;;;;;;6206552;23;20000;-50
2022/04/24 04:55:52;;;;;;;0.88;0.50;;;;;;;;;;6206954;23;20071;-49
2022/04/24 04:58:18;;;;;;;0.50;0.50;;;;;;;;;;6207041;23;20009;-48
2022/04/24 05:00:44;;;;;;;0.52;0.52;;;;;;;;;;6206832;23;20008;-50
2022/04/24 05:03:10;;;;;;;0.40;0.40;;;;;;;;;;6206311;23;20066;-49
2022/04/24 05:05:36;;;;;;;1.33;0.60;;;;;;;;;;6206638;23;20027;-47
2022/04/24 05:08:02;;;;;;;0.40;0.40;;;;;;;;;;6207107;23;20384;-50
2022/04/24 05:10:28;;;;;;;0.60;0.60;;;;;;;;;;6206589;23;20012;-48
2022/04/24 05:12:55;;;;;;;1.25;0.47;;;;;;;;;;6206751;23;20032;-47
2022/04/24 05:15:21;;;;;;;0.50;0.50;;;;;;;;;;6206290;23;20001;-50
2022/04/24 05:17:48;;;;;;;0.52;0.50;;;;;;;;;;6206958;23;20059;-49
2022/04/24 05:20:14;;;;;;;0.40;0.40;;;;;;;;;;6180324;23;20092;-50
2022/04/24 05:22:41;;;;;;;0.90;0.40;;;;;;;;;;6206604;23;19997;-51
2022/04/24 05:25:09;;;;;;;0.32;0.32;;;;;;;;;;6206203;23;20007;-49
2022/04/24 05:27:37;;;;;;;0.35;0.35;;;;;;;;;;6206347;23;20062;-49
2022/04/24 05:30:07;;;;;;;0.95;0.50;;;;;;;;;;6206576;23;20000;-50
2022/04/24 05:32:46;;;;;;;1.85;0.30;;;;;;;;;;6207236;23;20242;-49
2022/04/24 05:35:13;;;;;;;0.40;0.40;;;;;;;;;;6206405;23;20079;-49
2022/04/24 05:37:40;;;;;;;1.55;0.43;;;;;;;;;;6206349;23;20237;-51
2022/04/24 05:40:06;;;;;;;0.77;0.57;;;;;;;;;;6206148;23;20031;-46
2022/04/24 05:42:33;;;;;;;0.75;0.40;;;;;;;;;;6206395;23;20000;-47
2022/04/24 05:45:04;;;;;;;1.85;0.50;;;;;;;;;;6206484;23;20015;-48
2022/04/24 05:47:31;;;;;;;0.82;0.47;;;;;;;;;;6206377;23;20004;-51
2022/04/24 05:49:57;;;;;;;0.70;0.40;;;;;;;;;;6208359;23;20385;-51
2022/04/24 05:52:24;;;;;;;0.50;0.40;;;;;;;;;;6208545;23;20076;-49
2022/04/24 05:54:50;;;;;;;0.98;0.40;;;;;;;;;;6207372;23;20445;-49
2022/04/24 05:57:16;;;;;;;0.90;0.68;;;;;;;;;;6208083;23;20000;-51
2022/04/24 05:59:42;;;;;;;0.50;0.50;;;;;;;;;;6206275;23;20015;-50
2022/04/24 06:02:08;;;;;;;0.80;0.63;;;;;;;;;;6206567;23;20439;-49
2022/04/24 06:04:34;;;;;;;0.55;0.55;;;;;;;;;;6206683;23;20007;-50
2022/04/24 06:07:00;;;;;;;0.60;0.60;;;;;;;;;;6206718;23;20008;-49
2022/04/24 06:09:26;;;;;;;0.70;0.60;;;;;;;;;;6206024;23;20005;-47
2022/04/24 06:11:56;;;;;;;0.50;0.50;;;;;;;;;;6207092;23;20001;-50
2022/04/24 06:14:22;;;;;;;0.80;0.60;;;;;;;;;;6206301;23;20000;-50
2022/04/24 06:16:49;;;;;;;0.85;0.60;;;;;;;;;;6206223;23;20032;-50
2022/04/24 06:19:16;;;;;;;0.50;0.50;;;;;;;;;;6206423;23;20333;-50
2022/04/24 06:21:42;;;;;;;0.50;0.50;;;;;;;;;;6205542;23;20009;-49
2022/04/24 06:24:08;;;;;;;0.95;0.57;;;;;;;;;;6206104;23;20001;-48
2022/04/24 06:26:34;;;;;;;0.98;0.90;;;;;;;;;;6206448;23;20394;-50
2022/04/24 06:29:01;;;;;;;0.60;0.60;;;;;;;;;;6205997;23;19997;-47
2022/04/24 06:31:28;;;;;;;0.70;0.70;;;;;;;;;;6206176;23;20008;-52
2022/04/24 06:33:54;;;;;;;1.00;0.60;;;;;;;;;;6206458;23;20039;-50
2022/04/24 06:36:20;;;;;;;1.88;0.80;;;;;;;;;;6206028;23;20519;-48
2022/04/24 06:38:47;;;;;;;1.27;0.57;;;;;;;;;;6207064;23;20000;-50
2022/04/24 06:41:14;;;;;;;1.00;0.50;;;;;;;;;;6206336;23;20015;-51
2022/04/24 06:43:40;;;;;;;0.50;0.50;;;;;;;;;;6205938;23;20008;-46
2022/04/24 06:46:06;;;;;;;0.75;0.50;;;;;;;;;;6179286;23;20039;-49
2022/04/24 06:48:33;;;;;;;0.77;0.60;;;;;;;;;;6205989;23;20005;-50
2022/04/24 06:50:59;;;;;;;0.40;0.40;;;;;;;;;;6205869;23;20008;-48
2022/04/24 06:53:28;;;;;;;0.47;0.45;;;;;;;;;;6205615;23;20028;-50
2022/04/24 06:55:54;;;;;;;0.40;0.40;;;;;;;;;;6206145;23;20007;-50
2022/04/24 06:58:20;;;;;;;0.75;0.35;;;;;;;;;;6205269;23;20012;-49
2022/04/24 07:00:47;;;;;;;0.25;0.25;;;;;;;;;;6206468;23;20037;-51
2022/04/24 07:03:18;;;;;;;1.45;0.60;;;;;;;;;;6205619;23;20461;-48
2022/04/24 07:05:46;;;;;;;0.55;0.55;;;;;;;;;;6205795;23;20028;-51
2022/04/24 07:08:13;;;;;;;0.50;0.50;;;;;;;;;;6205731;23;19997;-51
2022/04/24 07:10:39;;;;;;;0.50;0.50;;;;;;;;;;6206888;23;20027;-49
2022/04/24 07:13:05;;;;;;;0.47;0.43;;;;;;;;;;6206454;23;20512;-52
2022/04/24 07:15:33;;;;;;;0.30;0.30;;;;;;;;;;6206994;23;20354;-50
2022/04/24 07:17:59;;;;;;;0.38;0.30;;;;;;;;;;6206982;23;20083;-48
2022/04/24 07:20:27;;;;;;;0.80;0.40;;;;;;;;;;6180333;23;20503;-50
2022/04/24 07:23:01;;;;;;;0.73;0.60;;;;;;;;;;6207190;23;20023;-48
2022/04/24 07:25:28;;;;;;;1.02;0.40;;;;;;;;;;6206690;23;20005;-49
2022/04/24 07:27:55;;;;;;;0.40;0.40;;;;;;;;;;6206625;23;20064;-50
2022/04/24 07:30:22;;;;;;;0.43;0.40;;;;;;;;;;6206596;23;20005;-50
2022/04/24 07:32:49;;;;;;;0.40;0.40;;;;;;;;;;6208105;23;20438;-49
2022/04/24 07:35:16;;;;;;;0.50;0.50;;;;;;;;;;6207762;23;20007;-51
2022/04/24 07:37:43;;;;;;;0.40;0.40;;;;;;;;;;6207087;23;20000;-51
2022/04/24 07:40:13;;;;;;;0.30;0.30;;;;;;;;;;6206706;23;20456;-50
2022/04/24 07:42:52;;;;;;;0.40;0.40;;;;;;;;;;6206658;23;20012;-51
2022/04/24 07:45:18;;;;;;;0.30;0.30;;;;;;;;;;6206456;23;20028;-50
2022/04/24 07:47:48;;;;;;;0.80;0.43;;;;;;;;;;6205311;23;20438;-50
2022/04/24 07:50:17;;;;;;;0.93;0.50;;;;;;;;;;6205106;23;20000;-51
2022/04/24 07:52:44;;;;;;;0.80;0.43;;;;;;;;;;6205467;23;20012;-50
2022/04/24 07:55:15;;;;;;;0.40;0.40;;;;;;;;;;6205201;23;21126;-49
2022/04/24 07:57:41;;;;;;;0.60;0.60;;;;;;;;;;6205100;23;20008;-52
2022/04/24 08:00:09;;;;;;;0.70;0.70;;;;;;;;;;6204188;23;20322;-51
2022/04/24 08:02:46;;;;;;;0.82;0.82;;;;;;;;;;6206523;23;20015;-49
2022/04/24 08:05:12;;;;;;;1.85;1.17;;;;;;;;;;6205980;23;20007;-49
2022/04/24 08:07:39;;;;;;;1.27;1.17;;;;;;;;;;6205661;23;20031;-48
2022/04/24 08:10:05;;;;;;;1.65;1.30;;;;;;;;;;6205812;23;19996;-51
2022/04/24 08:12:31;;;;;;;1.00;1.00;;;;;;;;;;6207122;23;20043;-51
2022/04/24 08:14:57;;;;;;;1.23;1.13;;;;;;;;;;6207320;23;20001;-50
2022/04/24 08:17:23;;;;;;;1.20;1.10;;;;;;;;;;6209249;23;20015;-50
2022/04/24 08:19:49;;;;;;;1.05;0.95;;;;;;;;;;6208826;23;20084;-47
2022/04/24 08:22:16;;;;;;;1.48;1.17;;;;;;;;;;6208261;23;20032;-50
2022/04/24 08:24:42;;;;;;;1.40;1.30;;;;;;;;;;6208610;23;20008;-50
2022/04/24 08:27:08;;;;;;;1.23;1.13;;;;;;;;;;6207267;23;20004;-47
2022/04/24 08:29:34;;;;;;;1.63;1.25;;;;;;;;;;6209642;23;20450;-50
2022/04/24 08:32:00;;;;;;;1.27;1.10;;;;;;;;;;6209812;23;20003;-49
2022/04/24 08:34:26;;;;;;;1.40;1.30;;;;;;;;;;6209351;23;20496;-48
2022/04/24 08:36:52;;;;;;;2.28;1.20;;;;;;;;;;6209759;23;20592;-48
2022/04/24 08:39:18;;;;;;;1.00;1.00;;;;;;;;;;6209352;23;20035;-48
2022/04/24 08:41:45;;;;;;;1.15;1.10;;;;;;;;;;6209429;23;20004;-50
2022/04/24 08:44:11;;;;;;;1.27;1.15;;;;;;;;;;6208921;23;20009;-51
2022/04/24 08:46:37;;;;;;;1.33;1.23;;;;;;;;;;6209675;23;20016;-51
2022/04/24 08:49:04;;;;;;;2.17;1.13;;;;;;;;;;6207934;23;20031;-48
2022/04/24 08:51:30;;;;;;;1.50;1.40;;;;;;;;;;6209785;23;20079;-47
2022/04/24 08:53:57;;;;;;;1.17;1.08;;;;;;;;;;6210079;23;20075;-51
2022/04/24 08:56:23;;;;;;;1.08;1.05;;;;;;;;;;6209001;23;20503;-50
2022/04/24 08:58:49;;;;;;;1.58;1.35;;;;;;;;;;6209959;23;20008;-51
2022/04/24 09:01:15;;;;;;;1.90;1.48;;;;;;;;;;6209273;23;20004;-47
2022/04/24 09:03:42;;;;;;;2.50;1.30;;;;;;;;;;6182750;23;20614;-47
2022/04/24 09:06:19;;;;;;;1.20;1.10;;;;;;;;;;6207617;23;20005;-50
2022/04/24 09:08:46;;;;;;;1.23;1.13;;;;;;;;;;6209705;23;20000;-49
2022/04/24 09:11:13;;;;;;;1.20;1.10;;;;;;;;;;6208624;23;20326;-51
2022/04/24 09:16:37;;;;;;;1.30;1.20;;;;;;;;;;6181239;23;20346;-49
2022/04/24 09:19:23;;;;;;;1.83;1.65;;;;;;;;;;6206166;23;20873;-48
2022/04/24 09:21:53;;;;;;;1.42;1.33;;;;;;;;;;6209251;23;20008;-50
2022/04/24 09:24:20;;;;;;;1.75;1.50;;;;;;;;;;6207566;23;20004;-49
2022/04/24 09:26:53;;;;;;;1.77;1.67;;;;;;;;;;6209650;23;20009;-50
2022/04/24 09:29:23;;;;;;;2.05;1.90;;;;;;;;;;6209682;23;20004;-49
2022/04/24 09:31:50;;;;;;;2.10;1.80;;;;;;;;;;6182152;23;20468;-48
2022/04/24 09:34:20;;;;;;;1.60;1.50;;;;;;;;;;6207691;23;20000;-48
2022/04/24 09:36:47;;;;;;;1.98;1.80;;;;;;;;;;6208380;23;20460;-50
2022/04/24 09:39:13;;;;;;;2.50;1.80;;;;;;;;;;6207655;23;20879;-49
2022/04/24 09:41:39;;;;;;;1.75;1.30;;;;;;;;;;6207826;23;20008;-49
2022/04/24 09:44:12;;;;;;;1.50;1.40;;;;;;;;;;6207723;23;20018;-50
2022/04/24 09:46:38;;;;;;;1.35;1.20;;;;;;;;;;6207681;23;20457;-49
2022/04/24 09:49:08;;;;;;;1.10;1.00;;;;;;;;;;6207295;23;20024;-51
2022/04/24 09:51:40;;;;;;;1.20;1.10;;;;;;;;;;6207874;23;20005;-49
2022/04/24 09:54:07;;;;;;;1.13;1.02;;;;;;;;;;6207492;23;20024;-49
2022/04/24 09:56:33;;;;;;;0.70;0.70;;;;;;;;;;6207558;23;20005;-48
2022/04/24 09:58:59;;;;;;;0.60;0.60;;;;;;;;;;6207443;23;20338;-48
2022/04/24 10:01:29;;;;;;;0.65;0.57;;;;;;;;;;6207070;23;20058;-52
2022/04/24 10:03:56;;;;;;;0.40;0.40;;;;;;;;;;6207568;23;20465;-49
2022/04/24 10:06:23;;;;;;;0.50;0.50;;;;;;;;;;6206401;23;20008;-50
2022/04/24 10:08:53;;;;;;;0.30;0.30;;;;;;;;;;6207752;23;20008;-49
2022/04/24 10:11:20;;;;;;;0.40;0.40;;;;;;;;;;6208336;23;20324;-50
2022/04/24 10:13:47;;;;;;;0.40;0.40;;;;;;;;;;6206065;23;20071;-50
2022/04/24 10:16:13;;;;;;;0.40;0.40;;;;;;;;;;6206288;23;20001;-51
2022/04/24 10:18:47;;;;;;;0.40;0.40;;;;;;;;;;6206216;23;20004;-52
2022/04/24 10:21:14;;;;;;;0.50;0.50;;;;;;;;;;6206235;23;20011;-52
2022/04/24 10:23:40;;;;;;;0.38;0.38;;;;;;;;;;6206244;23;20204;-50
2022/04/24 10:26:18;;;;;;;0.35;0.35;;;;;;;;;;6205721;23;20036;-51
2022/04/24 10:28:46;;;;;;;0.20;0.20;;;;;;;;;;6208005;23;20001;-52
2022/04/24 10:31:12;;;;;;;0.75;0.40;;;;;;;;;;6207579;23;20012;-51
2022/04/24 10:33:41;;;;;;;0.40;0.40;;;;;;;;;;6207702;23;20012;-52
2022/04/24 10:36:14;;;;;;;0.52;0.30;;;;;;;;;;6207131;23;20007;-51
2022/04/24 10:38:57;;;;;;;0.30;0.30;;;;;;;;;;6208116;23;20004;-51
2022/04/24 10:41:24;;;;;;;0.30;0.30;;;;;;;;;;6208004;23;21041;-51
2022/04/24 10:44:12;;;;;;;0.30;0.30;;;;;;;;;;6208438;23;20008;-48
2022/04/24 10:46:39;;;;;;;0.20;0.20;;;;;;;;;;6207434;23;20015;-50
2022/04/24 10:49:09;;;;;;;0.20;0.20;;;;;;;;;;6207555;23;20502;-50
2022/04/24 10:51:36;;;;;;;0.20;0.20;;;;;;;;;;6208009;23;20377;-53
2022/04/24 10:54:06;;;;;;;0.10;0.10;;;;;;;;;;6208256;23;20027;-51
2022/04/24 10:56:32;;;;;;;0.20;0.20;;;;;;;;;;6207181;23;20008;-52
2022/04/24 10:59:15;;;;;;;0.20;0.20;;;;;;;;;;6207087;23;20096;-52
2022/04/24 11:01:43;;;;;;;0.30;0.30;;;;;;;;;;6206903;23;20016;-49
2022/04/24 11:04:10;;;;;;;0.20;0.20;;;;;;;;;;6207967;23;20021;-50
2022/04/24 11:06:36;;;;;;;0.25;0.25;;;;;;;;;;6208177;23;20452;-53
2022/04/24 11:09:09;;;;;;;0.20;0.20;;;;;;;;;;6208082;23;20001;-51
2022/04/24 11:11:55;;;;;;;0.50;0.50;;;;;;;;;;6207597;23;20338;-51
2022/04/24 11:14:23;;;;;;;0.47;0.32;;;;;;;;;;6206721;23;20004;-52
2022/04/24 11:16:53;;;;;;;0.30;0.30;;;;;;;;;;6208750;23;20008;-50
2022/04/24 11:19:30;;;;;;;0.30;0.30;;;;;;;;;;6207762;23;20036;-52
2022/04/24 11:21:56;;;;;;;0.20;0.20;;;;;;;;;;6207759;23;20036;-50
2022/04/24 11:24:24;;;;;;;0.28;0.25;;;;;;;;;;6207160;23;20235;-51
2022/04/24 11:26:50;;;;;;;0.43;0.20;;;;;;;;;;6208462;23;20088;-53
2022/04/24 11:29:16;;;;;;;0.38;0.38;;;;;;;;;;6207779;23;19997;-52
2022/04/24 11:31:49;;;;;;;0.20;0.20;;;;;;;;;;6208075;23;20001;-50
2022/04/24 11:34:19;;;;;;;0.22;0.20;;;;;;;;;;6208050;23;20001;-51
2022/04/24 11:36:46;;;;;;;0.20;0.20;;;;;;;;;;6208107;23;20083;-49
2022/04/24 11:39:12;;;;;;;0.30;0.30;;;;;;;;;;6204806;23;20068;-49
2022/04/24 11:41:43;;;;;;;0.20;0.20;;;;;;;;;;6206005;23;20113;-52
2022/04/24 11:50:13;;;;;;;0.20;0.20;;;;;;;;;;6204626;23;20016;-50
2022/04/24 11:52:41;;;;;;;0.55;0.20;;;;;;;;;;6202575;23;20009;-49
2022/04/24 11:55:08;;;;;;;0.20;0.20;;;;;;;;;;6202581;23;20000;-50
2022/04/24 11:57:34;;;;;;;0.30;0.30;;;;;;;;;;6204386;23;20005;-51
2022/04/24 12:00:03;;;;;;;0.28;0.28;;;;;;;;;;6203277;23;20009;-51
2022/04/24 12:02:29;;;;;;;0.38;0.38;;;;;;;;;;6202787;23;20027;-52
2022/04/24 12:04:57;;;;;;;0.20;0.20;;;;;;;;;;6176405;23;20020;-51
2022/04/24 12:07:33;;;;;;;0.30;0.30;;;;;;;;;;6203234;23;20004;-52
2022/04/24 12:10:09;;;;;;;0.20;0.20;;;;;;;;;;6203247;23;20000;-48
2022/04/24 12:12:49;;;;;;;0.43;0.43;;;;;;;;;;6177192;23;20149;-51
2022/04/24 12:15:16;;;;;;;0.30;0.30;;;;;;;;;;6203120;23;20058;-49
2022/04/24 12:17:59;;;;;;;0.17;0.17;;;;;;;;;;6201998;23;20070;-51
2022/04/24 12:20:39;;;;;;;0.20;0.20;;;;;;;;;;6203403;23;20334;-53
2022/04/24 12:23:11;;;;;;;0.20;0.20;;;;;;;;;;6205755;23;20011;-51
2022/04/24 12:25:56;;;;;;;0.30;0.30;;;;;;;;;;6206224;23;20354;-49
2022/04/24 12:28:35;;;;;;;0.20;0.20;;;;;;;;;;6206036;23;20001;-50
2022/04/24 12:31:02;;;;;;;0.20;0.20;;;;;;;;;;6206121;23;20004;-52
2022/04/24 12:33:29;;;;;;;0.20;0.20;;;;;;;;;;6179634;23;20001;-51
2022/04/24 12:35:55;;;;;;;0.20;0.20;;;;;;;;;;6206311;23;20005;-50
2022/04/24 12:38:23;;;;;;;0.20;0.20;;;;;;;;;;6205504;23;20015;-53
2022/04/24 12:40:57;;;;;;;0.10;0.10;;;;;;;;;;6205626;23;20062;-49
2022/04/24 12:43:24;;;;;;;;;;;;;;;;;;6178589;23;20527;-51
2022/04/24 12:45:50;;;;;;;0.65;0.20;;;;;;;;;;6206722;23;20395;-52
2022/04/24 12:48:16;;;;;;;0.20;0.20;;;;;;;;;;6206842;23;20349;-51
2022/04/24 12:50:42;;;;;;;0.20;0.20;;;;;;;;;;6205750;23;20512;-53
2022/04/24 12:53:08;;;;;;;0.20;0.20;;;;;;;;;;6206030;23;20446;-53
2022/04/24 12:55:35;;;;;;;0.20;0.20;;;;;;;;;;6205822;23;20431;-53
2022/04/24 12:58:01;;;;;;;0.30;0.30;;;;;;;;;;6205604;23;20025;-53
2022/04/24 13:00:28;;;;;;;0.30;0.30;;;;;;;;;;6205945;23;20000;-49
2022/04/24 13:02:54;;;;;;;0.22;0.22;;;;;;;;;;6205825;23;20028;-51
2022/04/24 13:05:20;;;;;;;0.30;0.30;;;;;;;;;;6180772;23;20008;-52
2022/04/24 13:07:46;;;;;;;0.38;0.35;;;;;;;;;;6207773;23;20430;-52
2022/04/24 13:10:14;;;;;;;0.30;0.30;;;;;;;;;;6204948;23;20005;-52
2022/04/24 13:12:40;;;;;;;0.20;0.20;;;;;;;;;;6204918;23;20100;-50
2022/04/24 13:15:06;;;;;;;0.40;0.40;;;;;;;;;;6204821;23;20036;-51
2022/04/24 13:20:17;;;;;;;0.20;0.20;;;;;;;;;;6205938;23;20039;-51
2022/04/24 13:22:43;;;;;;;0.30;0.25;;;;;;;;;;6205732;23;20035;-48
2022/04/24 13:25:09;;;;;;;0.20;0.20;;;;;;;;;;6205170;23;20009;-49
2022/04/24 13:27:35;;;;;;;0.30;0.30;;;;;;;;;;6205537;23;20442;-52
2022/04/24 13:30:02;;;;;;;0.30;0.30;;;;;;;;;;6205329;23;20055;-53
2022/04/24 13:32:28;;;;;;;0.20;0.20;;;;;;;;;;6179427;23;19997;-52
2022/04/24 13:34:54;;;;;;;0.30;0.30;;;;;;;;;;6203197;23;20501;-52
2022/04/24 13:40:06;;;;;;;;;;;;;;;;;;6204754;23;20067;-51
2022/04/24 13:42:32;;;;;;;0.22;0.22;;;;;;;;;;6206863;23;19900;-51
2022/04/24 13:44:58;;;;;;;0.40;0.40;;;;;;;;;;6180070;23;20349;-49
2022/04/24 13:47:25;;;;;;;0.35;0.30;;;;;;;;;;6205747;23;20087;-52
2022/04/24 13:49:52;;;;;;;0.20;0.20;;;;;;;;;;6207743;23;20346;-51
2022/04/24 13:52:18;;;;;;;0.20;0.20;;;;;;;;;;6207315;23;20024;-53
2022/04/24 13:54:44;;;;;;;0.20;0.10;;;;;;;;;;6206323;23;20055;-50
2022/04/24 13:57:11;;;;;;;0.38;0.30;;;;;;;;;;6205907;23;20023;-52
2022/04/24 13:59:42;;;;;;;0.90;0.40;;;;;;;;;;6177905;23;20020;-51
2022/04/24 14:02:08;;;;;;;0.20;0.20;;;;;;;;;;6206092;23;20500;-50
2022/04/24 14:04:34;;;;;;;0.30;0.30;;;;;;;;;;6207011;23;20004;-52
2022/04/24 14:07:00;;;;;;;0.20;0.20;;;;;;;;;;6206099;23;20001;-50
2022/04/24 14:09:27;;;;;;;0.20;0.20;;;;;;;;;;6203448;23;20330;-53
2022/04/24 14:11:53;;;;;;;0.20;0.20;;;;;;;;;;6206343;23;20116;-52
2022/04/24 14:14:19;;;;;;;0.30;0.30;;;;;;;;;;6207129;23;20421;-49
2022/04/24 14:16:46;;;;;;;0.38;0.38;;;;;;;;;;6205301;23;20323;-51
2022/04/24 14:19:12;;;;;;;0.20;0.20;;;;;;;;;;6178681;23;20480;-49
2022/04/24 14:21:38;;;;;;;0.30;0.30;;;;;;;;;;6205559;23;20000;-50
2022/04/24 14:24:04;;;;;;;0.20;0.20;;;;;;;;;;6179557;23;20012;-51
2022/04/24 14:26:31;;;;;;;0.30;0.30;;;;;;;;;;6206041;23;20008;-52
2022/04/24 14:28:58;;;;;;;0.25;0.25;;;;;;;;;;6206227;23;20556;-51
2022/04/24 14:31:26;;;;;;;0.30;0.30;;;;;;;;;;6179276;23;19997;-52
2022/04/24 14:33:52;;;;;;;0.20;0.20;;;;;;;;;;6205855;23;20143;-52
2022/04/24 14:36:19;;;;;;;0.30;0.30;;;;;;;;;;6207257;23;20006;-50
2022/04/24 14:38:45;;;;;;;0.30;0.30;;;;;;;;;;6205982;23;20000;-51
2022/04/24 14:41:11;;;;;;;0.20;0.20;;;;;;;;;;6206216;23;20033;-51
2022/04/24 14:43:37;;;;;;;0.75;0.45;;;;;;;;;;6178498;23;20598;-52
2022/04/24 14:57:03;;;;;;;0.30;0.30;;;;;;;;;;6205588;23;20020;-52
2022/04/24 14:59:30;;;;;;;0.30;0.30;;;;;;;;;;6205824;23;20013;-52
2022/04/24 15:01:56;;;;;;;0.20;0.20;;;;;;;;;;6173792;23;20021;-50
2022/04/24 15:04:23;;;;;;;0.20;0.20;;;;;;;;;;6175327;23;20076;-52
2022/04/24 15:06:49;;;;;;;0.20;0.20;;;;;;;;;;6172284;23;20033;-51
2022/04/24 15:09:16;;;;;;;0.30;0.30;;;;;;;;;;6175567;23;20021;-52